createdAt,value
2023-06-30T00:00:13.756Z,27.00
2023-06-30T00:02:42.924Z,27.00
2023-06-30T00:05:11.044Z,27.00
2023-06-30T00:07:38.967Z,26.90
2023-06-30T00:10:07.489Z,27.00
2023-06-30T00:12:34.879Z,26.90
2023-06-30T00:15:02.502Z,27.00
2023-06-30T00:17:29.923Z,27.00
2023-06-30T00:19:59.028Z,27.00
2023-06-30T00:22:26.556Z,26.90
2023-06-30T00:24:57.095Z,26.80
2023-06-30T00:27:24.849Z,26.80
2023-06-30T00:29:52.303Z,26.80
2023-06-30T00:32:19.290Z,26.70
2023-06-30T00:34:46.500Z,26.60
2023-06-30T00:37:13.528Z,26.50
2023-06-30T00:39:40.351Z,26.60
2023-06-30T00:42:07.449Z,26.50
2023-06-30T00:44:34.353Z,26.50
2023-06-30T00:47:02.249Z,26.40
2023-06-30T00:49:30.117Z,26.40
2023-06-30T00:51:57.008Z,26.40
2023-06-30T00:54:24.300Z,26.30
2023-06-30T00:56:51.184Z,26.20
2023-06-30T00:59:18.102Z,26.20
2023-06-30T01:01:51.434Z,26.20
2023-06-30T01:04:18.637Z,26.20
2023-06-30T01:07:03.728Z,26.20
2023-06-30T01:09:37.254Z,26.20
2023-06-30T01:12:04.856Z,26.10
2023-06-30T01:14:32.740Z,26.10
2023-06-30T01:17:00.925Z,26.20
2023-06-30T01:19:40.202Z,26.10
2023-06-30T01:22:23.860Z,26.20
2023-06-30T01:24:52.247Z,26.10
2023-06-30T01:27:21.906Z,26.20
2023-06-30T01:29:50.240Z,26.20
2023-06-30T01:32:18.217Z,26.20
2023-06-30T01:34:46.529Z,26.20
2023-06-30T01:37:14.646Z,26.30
2023-06-30T01:39:41.569Z,26.10
2023-06-30T01:42:09.008Z,26.20
2023-06-30T01:44:37.455Z,26.20
2023-06-30T01:47:06.439Z,26.10
2023-06-30T01:49:34.728Z,26.20
2023-06-30T01:52:02.436Z,26.20
2023-06-30T01:54:29.384Z,26.20
2023-06-30T01:56:56.333Z,26.20
2023-06-30T01:59:23.681Z,26.10
2023-06-30T02:01:50.562Z,26.20
2023-06-30T02:04:17.891Z,26.10
2023-06-30T02:06:44.814Z,26.20
2023-06-30T02:09:13.592Z,26.10
2023-06-30T02:11:40.703Z,26.10
2023-06-30T02:14:07.624Z,26.10
2023-06-30T02:16:34.586Z,26.00
2023-06-30T02:19:01.492Z,26.00
2023-06-30T02:21:28.294Z,26.00
2023-06-30T02:23:55.170Z,25.90
2023-06-30T02:26:22.016Z,25.90
2023-06-30T02:28:48.869Z,25.80
2023-06-30T02:31:15.756Z,25.80
2023-06-30T02:33:42.625Z,25.80
2023-06-30T02:36:09.766Z,25.70
2023-06-30T02:38:36.743Z,25.80
2023-06-30T02:41:03.631Z,25.60
2023-06-30T02:43:30.508Z,25.60
2023-06-30T02:45:57.407Z,25.70
2023-06-30T02:48:24.326Z,25.70
2023-06-30T02:50:51.132Z,25.70
2023-06-30T02:53:18.032Z,25.70
2023-06-30T02:55:45.192Z,25.70
2023-06-30T02:58:12.324Z,25.60
2023-06-30T03:00:41.109Z,25.60
2023-06-30T03:03:08.106Z,25.60
2023-06-30T03:05:38.322Z,25.50
2023-06-30T03:08:05.580Z,25.60
2023-06-30T03:10:32.648Z,25.70
2023-06-30T03:12:59.487Z,25.60
2023-06-30T03:15:26.366Z,25.60
2023-06-30T03:17:54.962Z,25.60
2023-06-30T03:20:22.432Z,25.60
2023-06-30T03:22:49.379Z,25.60
2023-06-30T03:25:16.246Z,25.60
2023-06-30T03:27:43.089Z,25.70
2023-06-30T03:30:10.474Z,25.70
2023-06-30T03:32:37.413Z,25.60
2023-06-30T03:35:04.681Z,25.60
2023-06-30T03:37:32.430Z,25.60
2023-06-30T03:40:02.127Z,25.60
2023-06-30T03:42:28.968Z,25.60
2023-06-30T03:44:55.877Z,25.60
2023-06-30T03:47:22.689Z,25.50
2023-06-30T03:49:49.507Z,25.50
2023-06-30T03:52:16.521Z,25.50
2023-06-30T03:54:43.725Z,25.50
2023-06-30T03:57:10.617Z,25.40
2023-06-30T03:59:37.454Z,25.40
2023-06-30T04:02:04.563Z,25.40
2023-06-30T04:04:31.461Z,25.40
2023-06-30T04:06:58.386Z,25.40
2023-06-30T04:09:25.320Z,25.40
2023-06-30T04:11:52.234Z,25.50
2023-06-30T04:14:19.221Z,25.40
2023-06-30T04:16:46.158Z,25.50
2023-06-30T04:19:15.381Z,25.40
2023-06-30T04:21:42.295Z,25.50
2023-06-30T04:24:09.213Z,25.50
2023-06-30T04:26:36.435Z,25.50
2023-06-30T04:29:03.643Z,25.40
2023-06-30T04:31:30.543Z,25.50
2023-06-30T04:33:57.450Z,25.40
2023-06-30T04:36:24.361Z,25.50
2023-06-30T04:38:52.138Z,25.60
2023-06-30T04:41:19.656Z,25.70
2023-06-30T04:43:47.911Z,25.70
2023-06-30T04:46:14.814Z,25.80
2023-06-30T04:48:41.753Z,25.80
2023-06-30T04:51:08.660Z,25.80
2023-06-30T04:53:36.886Z,25.80
2023-06-30T04:56:03.860Z,25.90
2023-06-30T04:58:30.705Z,25.90
2023-06-30T05:00:58.215Z,26.00
2023-06-30T05:03:25.134Z,26.00
2023-06-30T05:05:51.980Z,26.10
2023-06-30T05:08:18.830Z,26.10
2023-06-30T05:10:45.733Z,26.10
2023-06-30T05:13:12.515Z,26.10
2023-06-30T05:15:39.437Z,26.20
2023-06-30T05:18:07.267Z,26.20
2023-06-30T05:20:35.200Z,26.30
2023-06-30T05:23:02.084Z,26.40
2023-06-30T05:25:28.968Z,26.60
2023-06-30T05:27:55.983Z,26.80
2023-06-30T05:30:22.949Z,27.00
2023-06-30T05:32:49.843Z,27.30
2023-06-30T05:35:16.861Z,27.40
2023-06-30T05:37:43.729Z,27.50
2023-06-30T05:40:11.079Z,27.70
2023-06-30T05:42:37.964Z,27.70
2023-06-30T05:45:05.147Z,27.80
2023-06-30T05:47:32.073Z,27.80
2023-06-30T05:49:58.972Z,28.00
2023-06-30T05:52:26.367Z,28.00
2023-06-30T05:54:53.272Z,28.10
2023-06-30T05:57:20.169Z,28.10
2023-06-30T05:59:47.044Z,28.20
2023-06-30T06:02:13.923Z,28.20
2023-06-30T06:04:41.072Z,28.10
2023-06-30T06:07:08.009Z,28.10
2023-06-30T06:09:35.699Z,28.10
2023-06-30T06:12:03.601Z,28.00
2023-06-30T06:14:30.435Z,27.90
2023-06-30T06:16:57.404Z,27.80
2023-06-30T06:19:24.269Z,27.80
2023-06-30T06:21:51.108Z,27.70
2023-06-30T06:24:18.664Z,27.70
2023-06-30T06:26:45.757Z,27.70
2023-06-30T06:29:15.747Z,27.80
2023-06-30T06:31:45.401Z,27.70
2023-06-30T06:34:12.603Z,27.70
2023-06-30T06:36:39.467Z,27.60
2023-06-30T06:39:07.663Z,27.60
2023-06-30T06:41:34.495Z,27.50
2023-06-30T06:44:01.263Z,27.40
2023-06-30T06:46:29.116Z,27.40
2023-06-30T06:48:56.240Z,27.40
2023-06-30T06:51:23.880Z,27.30
2023-06-30T06:53:57.182Z,27.30
2023-06-30T06:56:24.038Z,27.30
2023-06-30T06:58:50.959Z,27.30
2023-06-30T07:01:18.048Z,27.30
2023-06-30T07:03:46.832Z,27.30
2023-06-30T07:06:13.741Z,27.40
2023-06-30T07:08:40.640Z,27.40
2023-06-30T07:11:12.094Z,27.40
2023-06-30T07:13:39.547Z,27.50
2023-06-30T07:16:07.134Z,27.50
2023-06-30T07:18:35.376Z,27.50
2023-06-30T07:21:03.132Z,27.60
2023-06-30T07:23:30.065Z,27.50
2023-06-30T07:25:57.128Z,27.60
2023-06-30T07:28:24.075Z,27.60
2023-06-30T07:30:50.945Z,27.70
2023-06-30T07:33:18.932Z,27.60
2023-06-30T07:35:46.173Z,27.60
2023-06-30T07:38:13.513Z,27.70
2023-06-30T07:43:10.148Z,27.60
2023-06-30T07:45:37.618Z,27.70
2023-06-30T07:48:04.861Z,27.70
2023-06-30T07:50:31.919Z,27.60
2023-06-30T07:52:58.731Z,27.60
2023-06-30T07:55:25.719Z,27.60
2023-06-30T07:57:53.058Z,27.60
2023-06-30T08:00:20.340Z,27.60
2023-06-30T08:02:47.902Z,27.60
2023-06-30T08:05:15.296Z,27.50
2023-06-30T08:07:48.004Z,27.40
2023-06-30T08:10:18.147Z,27.30
2023-06-30T08:12:45.054Z,27.30
2023-06-30T08:15:12.007Z,27.30
2023-06-30T08:17:48.028Z,27.20
2023-06-30T08:20:20.021Z,27.20
2023-06-30T08:22:47.259Z,27.10
2023-06-30T08:25:14.270Z,27.00
2023-06-30T08:27:41.148Z,27.00
2023-06-30T08:30:08.563Z,27.00
2023-06-30T08:32:35.544Z,26.80
2023-06-30T08:35:02.582Z,26.70
2023-06-30T08:37:29.520Z,26.70
2023-06-30T08:39:56.347Z,26.50
2023-06-30T08:42:27.771Z,26.40
2023-06-30T08:44:55.889Z,26.20
2023-06-30T08:47:26.670Z,26.00
2023-06-30T08:49:55.282Z,25.70
2023-06-30T08:52:23.183Z,25.50
2023-06-30T08:54:50.073Z,25.30
2023-06-30T08:57:18.683Z,25.20
2023-06-30T08:59:46.240Z,25.00
2023-06-30T09:02:13.890Z,24.80
2023-06-30T09:04:44.766Z,24.70
2023-06-30T09:07:24.065Z,24.60
2023-06-30T09:09:54.177Z,24.50
2023-06-30T09:12:21.660Z,24.40
2023-06-30T09:14:51.263Z,24.30
2023-06-30T09:17:19.411Z,24.30
2023-06-30T09:19:46.570Z,24.20
2023-06-30T09:22:52.905Z,24.30
2023-06-30T09:25:02.139Z,24.30
2023-06-30T09:27:29.173Z,24.20
2023-06-30T09:29:56.916Z,24.20
2023-06-30T09:32:32.917Z,24.20
2023-06-30T09:35:09.393Z,24.20
2023-06-30T09:37:45.430Z,24.10
2023-06-30T09:40:25.858Z,24.10
2023-06-30T09:42:56.573Z,24.20
2023-06-30T09:45:23.364Z,24.10
2023-06-30T09:47:54.513Z,24.10
2023-06-30T09:50:34.415Z,24.20
2023-06-30T09:53:02.735Z,24.20
2023-06-30T09:55:29.573Z,24.10
2023-06-30T09:57:59.247Z,24.10
2023-06-30T10:00:55.121Z,24.10
2023-06-30T10:03:20.669Z,24.10
2023-06-30T10:05:51.447Z,24.10
2023-06-30T10:08:20.076Z,24.10
2023-06-30T10:10:47.191Z,24.20
2023-06-30T10:13:16.802Z,24.20
2023-06-30T10:15:44.805Z,24.30
2023-06-30T10:18:16.393Z,24.30
2023-06-30T10:20:48.873Z,24.40
2023-06-30T10:23:19.609Z,24.60
2023-06-30T10:25:47.156Z,24.70
2023-06-30T10:28:15.452Z,24.90
2023-06-30T10:30:43.158Z,25.10
2023-06-30T10:33:10.114Z,25.40
2023-06-30T10:35:37.553Z,25.60
2023-06-30T10:38:05.057Z,25.90
2023-06-30T10:40:32.127Z,26.10
2023-06-30T10:43:00.376Z,26.40
2023-06-30T10:45:29.207Z,26.50
2023-06-30T10:47:56.324Z,26.80
2023-06-30T10:50:24.001Z,27.00
2023-06-30T10:52:52.983Z,27.20
2023-06-30T10:55:27.210Z,27.40
2023-06-30T10:57:56.042Z,27.50
2023-06-30T11:00:27.806Z,27.70
2023-06-30T11:02:59.588Z,27.90
2023-06-30T11:05:26.533Z,28.10
2023-06-30T11:08:04.962Z,28.30
2023-06-30T11:10:37.465Z,28.40
2023-06-30T11:13:10.707Z,28.50
2023-06-30T11:15:43.999Z,28.60
2023-06-30T11:18:12.820Z,28.70
2023-06-30T11:20:40.206Z,28.90
2023-06-30T11:23:18.836Z,28.90
2023-06-30T11:25:45.654Z,28.90
2023-06-30T11:28:13.526Z,28.90
2023-06-30T11:30:40.561Z,29.00
2023-06-30T11:33:08.330Z,28.90
2023-06-30T11:35:36.802Z,29.00
2023-06-30T11:38:03.998Z,29.10
2023-06-30T11:40:30.871Z,29.10
2023-06-30T11:42:57.696Z,29.30
2023-06-30T11:45:28.982Z,29.30
2023-06-30T11:47:57.264Z,29.30
2023-06-30T11:50:26.303Z,29.50
2023-06-30T11:52:53.409Z,29.50
2023-06-30T11:55:21.290Z,29.50
2023-06-30T11:57:48.220Z,29.60
2023-06-30T12:00:20.918Z,29.60
2023-06-30T12:02:52.252Z,29.60
2023-06-30T12:05:27.497Z,29.70
2023-06-30T12:07:59.224Z,29.90
2023-06-30T12:10:39.754Z,29.90
2023-06-30T12:13:08.423Z,29.90
2023-06-30T12:15:39.658Z,29.90
2023-06-30T12:18:06.760Z,30.00
2023-06-30T12:20:36.383Z,30.10
2023-06-30T12:23:06.118Z,30.30
2023-06-30T12:25:37.232Z,30.40
2023-06-30T12:28:08.176Z,30.50
2023-06-30T12:30:35.197Z,30.50
2023-06-30T12:33:03.056Z,30.50
2023-06-30T12:35:30.759Z,30.50
2023-06-30T12:37:58.050Z,30.30
2023-06-30T12:40:28.613Z,30.30
2023-06-30T12:42:56.085Z,30.30
2023-06-30T12:45:22.977Z,30.20
2023-06-30T12:47:50.097Z,30.40
2023-06-30T12:50:17.072Z,30.40
2023-06-30T12:52:43.944Z,30.60
2023-06-30T12:55:11.272Z,30.70
2023-06-30T12:57:38.345Z,30.90
2023-06-30T13:00:11.761Z,31.00
2023-06-30T13:02:39.089Z,31.10
2023-06-30T13:05:07.478Z,31.20
2023-06-30T13:07:35.669Z,31.20
2023-06-30T13:10:04.204Z,31.20
2023-06-30T13:12:31.293Z,31.10
2023-06-30T13:14:58.890Z,31.00
2023-06-30T13:17:26.393Z,30.80
2023-06-30T13:19:53.580Z,30.70
2023-06-30T13:22:20.941Z,30.60
2023-06-30T13:24:49.694Z,30.50
2023-06-30T13:27:17.091Z,30.40
2023-06-30T13:29:50.891Z,30.50
2023-06-30T13:32:18.709Z,30.40
2023-06-30T13:34:47.250Z,30.50
2023-06-30T13:37:14.471Z,30.50
2023-06-30T13:39:41.538Z,30.40
2023-06-30T13:42:09.987Z,30.50
2023-06-30T13:44:37.648Z,30.40
2023-06-30T13:47:04.678Z,30.50
2023-06-30T13:49:31.665Z,30.60
2023-06-30T13:51:58.772Z,30.60
2023-06-30T13:54:25.783Z,30.70
2023-06-30T13:56:53.816Z,30.60
2023-06-30T13:59:20.861Z,30.70
2023-06-30T14:01:48.047Z,30.60
2023-06-30T14:04:15.536Z,30.40
2023-06-30T14:06:42.473Z,30.20
2023-06-30T14:09:12.498Z,30.10
2023-06-30T14:11:39.897Z,30.00
2023-06-30T14:14:07.259Z,30.00
2023-06-30T14:16:36.017Z,30.10
2023-06-30T14:19:04.627Z,30.20
2023-06-30T14:21:32.284Z,30.40
2023-06-30T14:23:59.609Z,30.40
2023-06-30T14:26:27.140Z,30.50
2023-06-30T14:28:54.343Z,30.50
2023-06-30T14:31:21.663Z,30.40
2023-06-30T14:33:48.972Z,30.30
2023-06-30T14:36:15.886Z,30.20
2023-06-30T14:38:42.714Z,30.20
2023-06-30T14:41:09.645Z,30.10
2023-06-30T14:43:36.578Z,29.90
2023-06-30T14:46:03.433Z,29.70
2023-06-30T14:48:30.294Z,29.60
2023-06-30T14:50:57.126Z,29.50
2023-06-30T14:53:24.052Z,29.30
2023-06-30T14:55:50.978Z,29.10
2023-06-30T14:58:17.864Z,29.00
2023-06-30T15:00:44.738Z,28.70
2023-06-30T15:03:11.846Z,28.70
2023-06-30T15:05:38.744Z,28.70
2023-06-30T15:08:07.156Z,28.80
2023-06-30T15:10:34.238Z,29.00
2023-06-30T15:13:01.462Z,29.30
2023-06-30T15:15:28.421Z,29.40
2023-06-30T15:17:55.337Z,29.50
2023-06-30T15:20:22.363Z,29.60
2023-06-30T15:22:50.255Z,29.50
2023-06-30T15:25:25.602Z,29.40
2023-06-30T15:27:52.938Z,29.20
2023-06-30T15:30:20.583Z,29.10
2023-06-30T15:32:48.044Z,29.00
2023-06-30T15:35:15.295Z,28.90
2023-06-30T15:37:42.409Z,28.80
2023-06-30T15:40:09.812Z,28.70
2023-06-30T15:42:36.764Z,28.60
2023-06-30T15:45:04.252Z,28.50
2023-06-30T15:47:31.104Z,28.40
2023-06-30T15:49:58.117Z,28.20
2023-06-30T15:52:25.019Z,28.10
2023-06-30T15:55:12.566Z,28.10
2023-06-30T15:57:39.899Z,27.90
2023-06-30T16:00:08.552Z,27.90
2023-06-30T16:02:36.699Z,27.80
2023-06-30T16:05:04.519Z,27.80
2023-06-30T16:07:31.573Z,27.90
2023-06-30T16:09:59.808Z,28.00
2023-06-30T16:12:26.817Z,28.00
2023-06-30T16:14:53.720Z,28.10
2023-06-30T16:17:20.548Z,28.00
2023-06-30T16:19:47.450Z,28.10
2023-06-30T16:22:14.233Z,28.10
2023-06-30T16:24:43.172Z,28.10
2023-06-30T16:27:11.940Z,28.10
2023-06-30T16:29:38.958Z,28.10
2023-06-30T16:32:07.591Z,28.10
2023-06-30T16:34:34.879Z,28.10
2023-06-30T16:37:02.423Z,27.90
2023-06-30T16:39:29.310Z,27.90
2023-06-30T16:41:56.208Z,27.80
2023-06-30T16:44:23.100Z,27.80
2023-06-30T16:46:50.020Z,27.70
2023-06-30T16:49:16.963Z,27.60
2023-06-30T16:51:43.912Z,27.50
2023-06-30T16:54:10.868Z,27.40
2023-06-30T16:56:38.089Z,27.50
2023-06-30T16:59:04.975Z,27.40
2023-06-30T17:01:32.089Z,27.40
2023-06-30T17:03:59.200Z,27.50
2023-06-30T17:06:26.965Z,27.50
2023-06-30T17:08:54.572Z,27.50
2023-06-30T17:11:21.597Z,27.40
2023-06-30T17:13:48.446Z,27.40
2023-06-30T17:16:15.487Z,27.40
2023-06-30T17:18:42.382Z,27.30
2023-06-30T17:21:09.219Z,27.20
2023-06-30T17:23:37.354Z,27.30
2023-06-30T17:26:04.279Z,27.20
2023-06-30T17:28:31.109Z,27.20
2023-06-30T17:30:57.973Z,27.10
2023-06-30T17:33:24.935Z,27.10
2023-06-30T17:35:51.781Z,27.10
2023-06-30T17:38:18.654Z,27.10
2023-06-30T17:40:45.503Z,27.00
2023-06-30T17:43:12.975Z,27.00
2023-06-30T17:45:42.871Z,27.00
2023-06-30T17:48:09.873Z,27.10
2023-06-30T17:50:36.806Z,27.10
2023-06-30T17:53:03.735Z,27.10
2023-06-30T17:55:30.619Z,27.00
2023-06-30T17:57:57.564Z,27.00
2023-06-30T18:00:24.487Z,27.00
2023-06-30T18:02:51.598Z,27.00
2023-06-30T18:05:18.572Z,27.00
2023-06-30T18:07:45.632Z,27.00
2023-06-30T18:10:14.995Z,26.90
2023-06-30T18:12:42.180Z,26.90
2023-06-30T18:15:10.153Z,27.00
2023-06-30T18:17:37.300Z,26.90
2023-06-30T18:20:05.430Z,26.90
2023-06-30T18:22:34.504Z,27.00
2023-06-30T18:25:01.384Z,27.00
2023-06-30T18:27:28.310Z,26.90
2023-06-30T18:29:55.176Z,26.90
2023-06-30T18:32:22.141Z,26.90
2023-06-30T18:34:49.841Z,26.80
2023-06-30T18:37:16.746Z,26.80
2023-06-30T18:39:43.600Z,26.70
2023-06-30T18:42:10.465Z,26.80
2023-06-30T18:44:38.282Z,26.70
2023-06-30T18:47:06.737Z,26.60
2023-06-30T18:49:34.364Z,26.70
2023-06-30T18:52:01.888Z,26.60
2023-06-30T18:54:28.840Z,26.60
2023-06-30T18:56:55.669Z,26.60
2023-06-30T18:59:22.567Z,26.40
2023-06-30T19:01:49.719Z,26.50
2023-06-30T19:04:17.230Z,26.40
2023-06-30T19:06:44.491Z,26.40
2023-06-30T19:09:11.430Z,26.40
2023-06-30T19:11:39.230Z,26.40
2023-06-30T19:14:06.100Z,26.40
2023-06-30T19:16:33.066Z,26.40
2023-06-30T19:19:00.065Z,26.30
2023-06-30T19:21:26.913Z,26.30
2023-06-30T19:23:54.036Z,26.40
2023-06-30T19:26:21.925Z,26.30
2023-06-30T19:28:49.975Z,26.30
2023-06-30T19:31:17.640Z,26.30
2023-06-30T19:33:44.591Z,26.20
2023-06-30T19:36:11.424Z,26.20
2023-06-30T19:38:38.441Z,26.30
2023-06-30T19:41:05.317Z,26.20
2023-06-30T19:43:32.218Z,26.10
2023-06-30T19:46:00.219Z,26.10
2023-06-30T19:48:27.261Z,26.20
2023-06-30T19:50:54.138Z,26.10
2023-06-30T19:53:21.321Z,26.10
2023-06-30T19:55:48.515Z,26.10
2023-06-30T19:58:16.089Z,26.00
2023-06-30T20:00:42.892Z,26.10
2023-06-30T20:03:09.966Z,26.10
2023-06-30T20:05:37.934Z,26.00
2023-06-30T20:08:05.109Z,26.10
2023-06-30T20:10:32.048Z,26.00
2023-06-30T20:12:59.207Z,26.00
2023-06-30T20:15:27.127Z,26.00
2023-06-30T20:17:54.448Z,25.90
2023-06-30T20:20:21.823Z,26.00
2023-06-30T20:22:48.733Z,25.90
2023-06-30T20:25:15.924Z,25.80
2023-06-30T20:27:44.806Z,25.90
2023-06-30T20:30:13.475Z,25.80
2023-06-30T20:32:40.431Z,25.80
2023-06-30T20:35:08.517Z,25.80
2023-06-30T20:37:35.984Z,25.70
2023-06-30T20:40:03.207Z,25.70
2023-06-30T20:42:30.049Z,25.60
2023-06-30T20:44:56.849Z,25.60
2023-06-30T20:47:24.992Z,25.50
2023-06-30T20:49:52.162Z,25.50
2023-06-30T20:52:19.248Z,25.50
2023-06-30T20:54:46.099Z,25.40
2023-06-30T20:57:12.966Z,25.40
2023-06-30T20:59:39.861Z,25.40
2023-06-30T21:02:07.907Z,25.40
2023-06-30T21:04:35.067Z,25.30
2023-06-30T21:07:02.030Z,25.20
2023-06-30T21:09:29.089Z,25.30
2023-06-30T21:11:55.889Z,25.30
2023-06-30T21:14:22.830Z,25.20
2023-06-30T21:16:49.805Z,25.20
2023-06-30T21:19:16.973Z,25.20
2023-06-30T21:21:44.014Z,25.10
2023-06-30T21:24:11.236Z,25.00
2023-06-30T21:26:38.942Z,25.10
2023-06-30T21:29:05.957Z,25.10
2023-06-30T21:31:33.016Z,25.00
2023-06-30T21:33:59.934Z,25.00
2023-06-30T21:36:26.747Z,25.00
2023-06-30T21:38:53.739Z,25.00
2023-06-30T21:41:22.888Z,25.00
2023-06-30T21:43:49.857Z,25.00
2023-06-30T21:46:17.438Z,25.00
2023-06-30T21:48:44.397Z,25.10
2023-06-30T21:51:11.446Z,25.10
2023-06-30T21:53:38.609Z,25.00
2023-06-30T21:56:05.717Z,25.00
2023-06-30T21:58:32.650Z,24.90
2023-06-30T22:00:59.569Z,25.10
2023-06-30T22:03:27.048Z,25.00
2023-06-30T22:05:54.212Z,24.90
2023-06-30T22:08:21.200Z,24.90
2023-06-30T22:10:48.440Z,24.80
2023-06-30T22:13:15.373Z,24.80
2023-06-30T22:15:42.484Z,24.80
2023-06-30T22:18:09.865Z,24.80
2023-06-30T22:20:36.756Z,24.80
2023-06-30T22:23:03.687Z,24.80
2023-06-30T22:25:30.889Z,24.80
2023-06-30T22:27:59.012Z,24.80
2023-06-30T22:30:27.148Z,24.80
2023-06-30T22:32:54.692Z,24.80
2023-06-30T22:35:22.525Z,24.70
2023-06-30T22:37:49.372Z,24.70
2023-06-30T22:40:19.873Z,24.70
2023-06-30T22:42:46.982Z,24.60
2023-06-30T22:45:14.564Z,24.60
2023-06-30T22:47:41.707Z,24.50
2023-06-30T22:50:09.863Z,24.60
2023-06-30T22:52:39.532Z,24.60
2023-06-30T22:55:09.937Z,24.60
2023-06-30T22:57:36.791Z,24.50
2023-06-30T23:00:05.407Z,24.50
2023-06-30T23:02:32.327Z,24.50
2023-06-30T23:04:59.346Z,24.50
2023-06-30T23:07:26.199Z,24.50
2023-06-30T23:09:53.010Z,24.40
2023-06-30T23:12:19.902Z,24.40
2023-06-30T23:14:46.721Z,24.40
2023-06-30T23:17:16.734Z,24.40
2023-06-30T23:19:53.461Z,24.30
2023-06-30T23:22:20.791Z,24.30
2023-06-30T23:24:48.312Z,24.20
2023-06-30T23:27:16.661Z,24.30
2023-06-30T23:29:45.784Z,24.20
2023-06-30T23:32:16.928Z,24.20
2023-06-30T23:34:44.249Z,24.20
2023-06-30T23:37:15.717Z,24.10
2023-06-30T23:39:42.623Z,24.10
2023-06-30T23:42:10.327Z,24.20
2023-06-30T23:44:37.616Z,24.10
2023-06-30T23:47:12.934Z,24.10
2023-06-30T23:49:41.037Z,24.20
2023-06-30T23:52:08.959Z,24.10
2023-06-30T23:54:35.784Z,24.00
2023-06-30T23:57:04.755Z,24.10
2023-06-30T23:59:31.661Z,24.00
